Oruro, Juan Mendoza Airport (SLOR)

NameJuan Mendoza Airport
CityOruro
CountryBolivia
ICAOSLOR
IATAORU
Altitude3702 m
CoordinatesGoogle Map
Live Air TrafficLiveATC.net
METARSLOR 071700Z 35010KT 9999 SCT020 FEW023CB BKN200 19/04 Q1032
2019-12-07 17:00:00 Wind: North-Northwest (350°) 5.14 m/s - Visibility: > 10000 m - Temperature: 19 °C - Dew point: 4 °C - Humidity: 37.2% - Pressure: 1032 hPa

Sorry, no flights used the airport in this database.